Time;durP1;ratioP1;P1;durP2;ratioP2;P2;SDS_P1;SDS_P2;PMS_P1;PMS_P2;Temp;Humidity;BMP_temperature;BMP_pressure;BME280_temperature;BME280_humidity;BME280_pressure;Samples;Min_cycle;Max_cycle;Signal;HPM_P1;HPM_P2
2021/04/23 00:02:25;;;;;;;11.02;7.93;;;;;;;16.23;100.00;101232.53;5035296;28;20082;-72
2021/04/23 00:05:12;;;;;;;11.02;7.63;;;;;;;16.48;100.00;101230.00;5034143;28;20025;-72
2021/04/23 00:07:57;;;;;;;12.75;7.38;;;;;;;16.80;98.50;101224.47;5036166;28;20112;-73
2021/04/23 00:10:44;;;;;;;13.68;7.40;;;;;;;16.85;98.12;101233.09;5036015;28;20026;-73
2021/04/23 00:13:30;;;;;;;10.93;7.38;;;;;;;16.68;99.85;101227.53;5036195;28;20057;-74
2021/04/23 00:16:16;;;;;;;10.73;8.07;;;;;;;16.76;99.58;101225.50;5035935;28;20034;-73
2021/04/23 00:19:11;;;;;;;11.45;9.27;;;;;;;16.87;97.52;101233.91;5035718;28;20454;-74
2021/04/23 00:21:58;;;;;;;13.27;8.73;;;;;;;16.98;97.91;101231.75;5033536;28;20124;-74
2021/04/23 00:24:44;;;;;;;13.43;8.60;;;;;;;17.15;95.81;101227.59;5035805;28;20030;-74
2021/04/23 00:27:29;;;;;;;14.23;9.15;;;;;;;16.66;99.30;101217.00;5036004;28;20628;-74
2021/04/23 00:30:16;;;;;;;12.50;8.48;;;;;;;17.25;96.71;101221.06;5019457;28;20017;-74
2021/04/23 00:33:04;;;;;;;12.05;8.85;;;;;;;17.47;94.41;101219.34;5034724;28;20029;-73
2021/04/23 00:35:50;;;;;;;19.65;10.10;;;;;;;17.40;96.82;101217.84;5021156;28;20404;-73
2021/04/23 00:38:38;;;;;;;18.35;12.32;;;;;;;17.08;98.17;101220.78;5034460;28;20112;-74
2021/04/23 00:41:31;;;;;;;16.65;10.63;;;;;;;17.39;96.78;101229.34;5034792;28;20035;-74
2021/04/23 00:44:17;;;;;;;12.55;8.60;;;;;;;17.22;96.13;101230.88;5034576;28;20036;-74
2021/04/23 00:47:03;;;;;;;12.98;9.00;;;;;;;16.98;99.91;101224.69;5034060;28;20040;-73
2021/04/23 00:49:50;;;;;;;13.80;9.23;;;;;;;16.67;100.00;101225.78;5035626;28;20095;-74
2021/04/23 00:52:36;;;;;;;16.90;9.95;;;;;;;16.65;100.00;101236.44;5035231;28;20026;-73
2021/04/23 00:55:22;;;;;;;19.00;12.20;;;;;;;16.49;100.00;101229.06;5020654;28;20022;-74
2021/04/23 00:58:14;;;;;;;20.65;12.55;;;;;;;16.06;100.00;101226.94;5033504;28;20035;-74
2021/04/23 01:01:09;;;;;;;15.00;10.85;;;;;;;16.32;100.00;101226.94;5019968;28;20068;-74
2021/04/23 01:03:56;;;;;;;16.63;10.52;;;;;;;16.53;100.00;101226.28;5033278;28;20469;-74
2021/04/23 01:06:42;;;;;;;17.73;11.65;;;;;;;16.09;100.00;101223.31;5034956;28;20450;-74
2021/04/23 01:09:31;;;;;;;17.10;11.30;;;;;;;16.34;100.00;101234.81;5033569;28;20057;-74
2021/04/23 01:12:17;;;;;;;22.02;12.70;;;;;;;15.83;100.00;101257.63;5034456;28;20108;-74
2021/04/23 01:15:03;;;;;;;17.48;11.68;;;;;;;15.67;100.00;101244.00;5020896;28;20387;-74
2021/04/23 01:17:50;;;;;;;19.63;12.80;;;;;;;15.52;100.00;101252.41;5033372;28;20124;-74
2021/04/23 01:20:35;;;;;;;16.33;11.45;;;;;;;15.41;100.00;101246.56;5034642;28;20358;-74
2021/04/23 01:23:21;;;;;;;15.25;11.68;;;;;;;15.51;100.00;101255.91;5033454;28;20021;-73
2021/04/23 01:26:08;;;;;;;15.65;11.80;;;;;;;15.56;100.00;101264.59;5033143;28;20025;-74
2021/04/23 01:28:55;;;;;;;15.50;11.10;;;;;;;15.51;100.00;101263.84;5034103;28;20029;-73
2021/04/23 01:31:44;;;;;;;17.35;11.50;;;;;;;15.93;100.00;101259.94;5034065;28;20061;-73
2021/04/23 01:34:37;;;;;;;15.18;10.68;;;;;;;16.08;100.00;101261.25;5018995;28;20181;-73
2021/04/23 01:37:23;;;;;;;15.25;10.63;;;;;;;16.16;100.00;101262.72;5032856;28;20032;-74
2021/04/23 01:40:10;;;;;;;17.80;10.85;;;;;;;15.84;100.00;101256.72;5032572;28;20099;-74
2021/04/23 01:42:56;;;;;;;15.95;11.23;;;;;;;16.17;100.00;101248.59;5019361;28;20035;-73
2021/04/23 01:45:42;;;;;;;14.77;11.00;;;;;;;15.91;100.00;101252.97;5033327;28;20025;-73
2021/04/23 01:48:28;;;;;;;15.85;11.27;;;;;;;15.84;100.00;101251.44;5033294;28;20124;-75
2021/04/23 01:51:15;;;;;;;14.95;11.57;;;;;;;16.28;100.00;101246.47;5033318;28;20029;-74
2021/04/23 01:54:00;;;;;;;17.88;10.80;;;;;;;16.25;100.00;101236.00;5032954;28;20506;-74
2021/04/23 01:56:47;;;;;;;16.60;10.68;;;;;;;16.11;100.00;101250.59;5033188;28;20457;-74
2021/04/23 01:59:34;;;;;;;16.50;10.80;;;;;;;16.19;100.00;101246.75;5033403;28;20113;-74
2021/04/23 02:02:21;;;;;;;15.73;10.25;;;;;;;16.46;100.00;101232.69;5034718;28;20056;-74
2021/04/23 02:05:08;;;;;;;16.25;11.57;;;;;;;16.57;100.00;101245.56;5032410;28;20017;-74
2021/04/23 02:07:55;;;;;;;18.27;11.50;;;;;;;16.87;100.00;101236.56;5020698;28;20144;-74
2021/04/23 02:10:45;;;;;;;19.48;14.10;;;;;;;16.45;100.00;101241.53;5033701;28;20057;-73
2021/04/23 02:13:31;;;;;;;17.42;10.68;;;;;;;16.43;100.00;101245.16;5032495;28;20547;-74
2021/04/23 02:16:19;;;;;;;18.30;10.90;;;;;;;16.58;100.00;101245.50;5032538;28;20112;-73
2021/04/23 02:19:07;;;;;;;14.52;9.68;;;;;;;16.94;100.00;101241.59;5018908;28;20032;-74
2021/04/23 02:21:53;;;;;;;14.73;10.63;;;;;;;16.45;100.00;101238.91;5033575;28;20449;-74
2021/04/23 02:24:39;;;;;;;14.40;10.48;;;;;;;15.91;100.00;101259.09;5032825;28;20021;-74
2021/04/23 02:27:25;;;;;;;19.50;11.10;;;;;;;15.86;100.00;101263.69;5033097;28;20026;-73
2021/04/23 02:30:15;;;;;;;16.52;11.20;;;;;;;15.95;100.00;101255.47;5032687;28;20026;-75
2021/04/23 02:33:02;;;;;;;16.23;10.80;;;;;;;15.69;100.00;101257.16;5033233;28;20522;-73
2021/04/23 02:35:49;;;;;;;13.35;10.98;;;;;;;15.17;100.00;101265.69;5032502;28;20029;-74
2021/04/23 02:38:36;;;;;;;16.77;10.80;;;;;;;15.37;100.00;101262.50;5034121;28;20109;-73
2021/04/23 02:41:22;;;;;;;17.83;11.30;;;;;;;15.45;100.00;101269.31;5032600;28;20021;-74
2021/04/23 02:44:09;;;;;;;15.82;11.13;;;;;;;15.86;100.00;101268.97;5018443;28;20033;-73
2021/04/23 02:46:55;;;;;;;19.02;11.25;;;;;;;15.93;100.00;101264.34;5032443;28;20030;-73
2021/04/23 02:49:41;;;;;;;15.02;11.20;;;;;;;15.85;100.00;101261.06;5018868;28;20541;-73
2021/04/23 02:52:27;;;;;;;17.27;10.95;;;;;;;15.76;100.00;101254.31;5033583;28;20040;-73
2021/04/23 02:55:14;;;;;;;23.77;11.80;;;;;;;15.79;100.00;101261.28;5035582;28;20366;-74
2021/04/23 02:58:08;;;;;;;23.92;11.93;;;;;;;15.83;100.00;101258.47;5038043;28;20022;-73
2021/04/23 03:00:59;;;;;;;25.13;13.32;;;;;;;15.76;100.00;101262.25;5036687;28;20076;-74
2021/04/23 03:03:45;;;;;;;22.58;13.23;;;;;;;15.64;100.00;101262.59;5035547;28;20025;-73
2021/04/23 03:06:32;;;;;;;21.95;13.73;;;;;;;15.65;100.00;101266.97;5036637;28;20067;-73
2021/04/23 03:09:18;;;;;;;19.58;11.52;;;;;;;15.72;100.00;101271.16;5035721;28;20033;-74
2021/04/23 03:12:05;;;;;;;18.30;11.32;;;;;;;15.97;100.00;101263.34;5035700;28;20592;-74
2021/04/23 03:14:51;;;;;;;16.48;10.90;;;;;;;16.15;100.00;101265.44;5036292;28;20033;-73
2021/04/23 03:17:37;;;;;;;16.02;10.60;;;;;;;16.17;100.00;101277.69;5035580;28;20362;-73
2021/04/23 03:20:25;;;;;;;16.67;11.48;;;;;;;16.37;100.00;101279.69;5035276;28;20030;-73
2021/04/23 03:23:11;;;;;;;17.05;11.75;;;;;;;16.40;100.00;101288.38;5034983;28;20017;-73
2021/04/23 03:26:00;;;;;;;14.35;10.60;;;;;;;16.26;100.00;101284.44;5022373;28;20158;-73
2021/04/23 03:28:47;;;;;;;16.73;11.15;;;;;;;16.33;100.00;101301.84;5022258;28;20091;-73
2021/04/23 03:31:35;;;;;;;18.50;11.63;;;;;;;16.13;100.00;101298.97;5035224;28;20040;-74
2021/04/23 03:34:22;;;;;;;16.45;10.88;;;;;;;15.97;100.00;101297.72;5036697;28;20033;-73
2021/04/23 03:37:08;;;;;;;15.23;11.02;;;;;;;16.21;100.00;101303.13;5036204;28;20026;-74
2021/04/23 03:39:54;;;;;;;15.95;11.32;;;;;;;16.10;100.00;101310.50;5021513;28;20466;-74
2021/04/23 03:42:40;;;;;;;15.65;11.65;;;;;;;16.14;100.00;101311.28;5021924;28;20048;-74
2021/04/23 03:45:27;;;;;;;17.30;11.25;;;;;;;15.97;100.00;101313.56;5035094;28;20052;-75
2021/04/23 03:48:12;;;;;;;21.17;12.15;;;;;;;16.25;100.00;101314.47;5034549;28;20059;-74
2021/04/23 03:50:58;;;;;;;14.60;10.50;;;;;;;15.91;100.00;101322.53;5022511;28;20087;-73
2021/04/23 03:53:45;;;;;;;14.88;11.40;;;;;;;15.81;100.00;101328.13;5034735;28;20198;-73
2021/04/23 03:56:31;;;;;;;18.25;14.38;;;;;;;15.65;100.00;101334.78;5035278;28;20026;-75
2021/04/23 03:59:18;;;;;;;23.13;14.80;;;;;;;15.94;100.00;101332.16;5035410;28;20099;-74
2021/04/23 04:02:04;;;;;;;21.10;15.13;;;;;;;15.72;100.00;101336.34;5034831;28;20045;-74
2021/04/23 04:04:49;;;;;;;22.90;15.70;;;;;;;15.71;100.00;101347.81;5034726;28;20025;-74
2021/04/23 04:07:35;;;;;;;18.95;13.85;;;;;;;15.96;100.00;101346.19;5021035;28;20029;-73
2021/04/23 04:10:21;;;;;;;18.02;13.98;;;;;;;15.57;100.00;101345.56;5020360;28;20419;-73
2021/04/23 04:13:08;;;;;;;21.77;14.02;;;;;;;15.59;100.00;101348.16;5020619;28;20045;-74
2021/04/23 04:15:54;;;;;;;18.00;13.40;;;;;;;15.00;100.00;101356.75;5020965;28;20033;-74
2021/04/23 04:18:40;;;;;;;18.35;13.98;;;;;;;14.63;100.00;101356.81;5034605;28;20033;-73
2021/04/23 04:21:25;;;;;;;22.25;13.25;;;;;;;14.79;100.00;101364.31;5036065;28;20474;-73
2021/04/23 04:24:11;;;;;;;17.63;12.85;;;;;;;15.62;100.00;101355.97;5034803;28;20043;-74
2021/04/23 04:26:57;;;;;;;19.15;14.32;;;;;;;15.14;100.00;101358.13;5034980;28;20022;-73
2021/04/23 04:29:45;;;;;;;18.38;14.00;;;;;;;14.97;100.00;101360.34;5034539;28;20083;-73
2021/04/23 04:32:31;;;;;;;20.95;14.73;;;;;;;15.06;100.00;101361.91;5035134;28;20035;-74
2021/04/23 04:35:17;;;;;;;20.35;14.93;;;;;;;15.32;100.00;101367.34;5020578;28;20040;-73
2021/04/23 04:38:06;;;;;;;20.35;13.82;;;;;;;14.84;100.00;101364.22;5034872;28;20057;-73
2021/04/23 04:40:53;;;;;;;18.77;14.13;;;;;;;14.97;100.00;101363.00;5034084;28;20037;-73
2021/04/23 04:43:39;;;;;;;18.52;13.95;;;;;;;15.67;100.00;101362.03;5034885;28;20029;-74
2021/04/23 04:46:25;;;;;;;21.98;14.02;;;;;;;15.96;100.00;101359.41;5033736;28;20365;-73
2021/04/23 04:49:12;;;;;;;20.67;13.25;;;;;;;16.29;100.00;101358.41;5034261;28;20033;-74
2021/04/23 04:51:58;;;;;;;19.77;14.40;;;;;;;15.92;100.00;101365.69;5034296;28;20041;-74
2021/04/23 04:54:44;;;;;;;22.10;14.65;;;;;;;16.12;100.00;101380.03;5020576;28;20036;-74
2021/04/23 04:57:30;;;;;;;22.30;15.90;;;;;;;15.48;100.00;101369.59;5034171;28;20029;-74
2021/04/23 05:00:16;;;;;;;22.38;16.10;;;;;;;15.92;100.00;101384.19;5034448;28;20060;-74
2021/04/23 05:03:02;;;;;;;20.42;16.10;;;;;;;15.59;100.00;101383.34;5033431;28;20476;-73
2021/04/23 05:05:49;;;;;;;22.17;15.68;;;;;;;15.74;100.00;101389.97;5034660;28;20056;-73
2021/04/23 05:08:35;;;;;;;22.67;15.75;;;;;;;15.70;100.00;101383.94;5020091;28;20037;-74
2021/04/23 05:11:21;;;;;;;20.77;15.80;;;;;;;15.80;100.00;101388.06;5019559;28;20521;-73
2021/04/23 05:14:07;;;;;;;17.00;13.07;;;;;;;16.11;100.00;101388.91;5019606;28;20053;-75
2021/04/23 05:16:53;;;;;;;15.68;13.35;;;;;;;15.95;100.00;101398.19;5033057;28;20094;-74
2021/04/23 05:19:39;;;;;;;16.67;12.80;;;;;;;15.85;100.00;101390.56;5033688;28;20029;-74
2021/04/23 05:22:25;;;;;;;15.77;13.50;;;;;;;15.68;100.00;101392.81;5033613;28;20022;-75
2021/04/23 05:25:14;;;;;;;18.65;13.57;;;;;;;15.61;100.00;101396.53;5033491;28;20521;-74
2021/04/23 05:27:59;;;;;;;18.17;13.32;;;;;;;15.88;100.00;101399.28;5033946;28;20378;-75
2021/04/23 05:30:45;;;;;;;16.83;14.02;;;;;;;15.75;100.00;101399.66;5018779;28;20032;-75
2021/04/23 05:33:31;;;;;;;16.40;13.20;;;;;;;15.51;100.00;101410.91;5034003;28;20091;-74
2021/04/23 05:36:17;;;;;;;16.75;12.40;;;;;;;15.95;100.00;101416.69;5033447;28;20033;-74
2021/04/23 05:39:03;;;;;;;18.27;13.73;;;;;;;15.68;100.00;101422.75;5019664;28;20096;-73
2021/04/23 05:41:50;;;;;;;19.05;15.38;;;;;;;15.76;100.00;101425.19;5032863;28;20091;-73
2021/04/23 05:44:36;;;;;;;17.75;15.32;;;;;;;15.95;100.00;101429.06;5019720;28;20432;-76
2021/04/23 05:47:23;;;;;;;19.23;15.82;;;;;;;15.66;100.00;101434.25;5033231;28;20102;-74
2021/04/23 05:50:11;;;;;;;21.02;15.30;;;;;;;15.74;100.00;101429.63;5034043;28;20029;-75
2021/04/23 05:52:57;;;;;;;20.67;16.42;;;;;;;16.01;100.00;101421.81;5032654;28;20021;-75
2021/04/23 05:55:43;;;;;;;22.05;16.90;;;;;;;15.75;100.00;101419.00;5032502;28;20063;-74
2021/04/23 05:58:28;;;;;;;21.73;17.52;;;;;;;15.09;100.00;101431.31;5019076;28;20021;-74
2021/04/23 06:01:15;;;;;;;19.83;16.30;;;;;;;15.12;100.00;101427.72;5032947;28;20446;-75
2021/04/23 06:04:01;;;;;;;20.60;16.27;;;;;;;15.48;100.00;101429.47;5033617;28;20424;-74
2021/04/23 06:06:46;;;;;;;19.45;16.48;;;;;;;15.56;100.00;101433.66;5032988;28;20025;-74
2021/04/23 06:09:32;;;;;;;21.05;17.08;;;;;;;15.40;100.00;101421.75;5019754;28;20438;-74
2021/04/23 06:12:18;;;;;;;21.38;17.30;;;;;;;15.43;100.00;101431.38;5027701;28;20061;-73
2021/04/23 06:15:05;;;;;;;20.25;16.58;;;;;;;15.90;100.00;101428.28;5011940;28;20049;-73
2021/04/23 06:17:54;;;;;;;21.40;18.15;;;;;;;15.77;100.00;101429.53;5024644;28;20028;-73
2021/04/23 06:20:42;;;;;;;22.88;19.50;;;;;;;15.70;100.00;101435.91;5025796;28;20040;-73
2021/04/23 06:23:28;;;;;;;22.48;20.05;;;;;;;15.97;100.00;101437.78;5024531;28;20052;-73
2021/04/23 06:26:13;;;;;;;26.20;21.00;;;;;;;15.99;100.00;101436.84;5010921;28;20025;-72
2021/04/23 06:28:59;;;;;;;26.60;20.15;;;;;;;16.14;100.00;101446.97;5015198;28;20055;-72
2021/04/23 06:31:45;;;;;;;26.27;19.73;;;;;;;16.09;100.00;101446.25;5027464;28;20362;-73
2021/04/23 06:34:31;;;;;;;21.45;18.38;;;;;;;16.32;100.00;101443.78;5026867;28;20493;-74
2021/04/23 06:37:17;;;;;;;24.75;18.45;;;;;;;15.48;100.00;101453.22;5026708;28;20490;-72
2021/04/23 06:40:04;;;;;;;24.30;18.55;;;;;;;15.54;100.00;101450.41;5029311;28;20036;-73
2021/04/23 06:42:50;;;;;;;23.23;18.42;;;;;;;15.97;100.00;101445.72;4985004;28;20129;-73
2021/04/23 06:45:38;;;;;;;24.10;18.75;;;;;;;16.37;100.00;101456.88;4994480;28;20449;-72
2021/04/23 06:48:23;;;;;;;26.05;17.52;;;;;;;15.81;100.00;101462.91;4988699;28;20386;-73
2021/04/23 06:51:09;;;;;;;18.50;16.50;;;;;;;16.22;100.00;101465.25;4986874;28;20033;-73
2021/04/23 06:53:55;;;;;;;21.52;17.17;;;;;;;15.99;100.00;101473.00;4989697;28;21009;-73
2021/04/23 06:56:41;;;;;;;19.65;16.83;;;;;;;16.44;100.00;101482.28;4999916;28;20458;-72
2021/04/23 06:59:27;;;;;;;18.95;15.52;;;;;;;16.30;100.00;101474.72;5027496;28;20055;-73
2021/04/23 07:02:13;;;;;;;19.55;16.55;;;;;;;16.37;100.00;101478.03;5029066;28;20017;-73
2021/04/23 07:04:58;;;;;;;21.05;17.42;;;;;;;16.27;100.00;101466.00;5027295;28;20044;-72
2021/04/23 07:07:46;;;;;;;22.33;18.13;;;;;;;16.32;100.00;101472.88;5013256;28;20025;-72
2021/04/23 07:10:32;;;;;;;20.30;17.48;;;;;;;15.73;100.00;101462.25;5028322;28;20327;-73
2021/04/23 07:13:18;;;;;;;22.85;18.30;;;;;;;15.76;100.00;101468.34;5025252;28;20050;-73
2021/04/23 07:16:10;;;;;;;21.95;18.42;;;;;;;15.75;100.00;101468.38;5028529;28;20048;-73
2021/04/23 07:18:56;;;;;;;23.17;17.88;;;;;;;16.48;100.00;101476.84;5028272;28;20029;-73
2021/04/23 07:21:42;;;;;;;23.08;17.95;;;;;;;16.54;100.00;101484.63;5028876;28;20041;-73
2021/04/23 07:24:28;;;;;;;24.63;20.08;;;;;;;15.82;100.00;101491.94;5027075;28;20650;-73
2021/04/23 07:27:14;;;;;;;29.73;22.70;;;;;;;15.92;100.00;101496.09;5028538;28;20037;-73
2021/04/23 07:30:00;;;;;;;28.33;21.73;;;;;;;16.01;100.00;101487.91;5013117;28;20121;-73
2021/04/23 07:32:48;;;;;;;24.48;20.42;;;;;;;16.09;100.00;101488.56;5013208;28;20108;-73
2021/04/23 07:35:34;;;;;;;26.05;21.40;;;;;;;16.32;100.00;101495.84;5027821;28;20030;-73
2021/04/23 07:38:19;;;;;;;26.80;20.95;;;;;;;16.35;100.00;101493.13;5026698;28;20025;-73
2021/04/23 07:41:05;;;;;;;23.83;18.42;;;;;;;16.37;100.00;101501.84;5028902;28;20114;-73
2021/04/23 07:43:51;;;;;;;28.85;19.33;;;;;;;16.03;100.00;101509.84;5026452;28;20439;-72
2021/04/23 07:46:37;;;;;;;23.85;17.20;;;;;;;16.23;100.00;101504.03;5027350;28;20183;-72
2021/04/23 07:49:23;;;;;;;21.73;14.98;;;;;;;16.05;100.00;101509.81;5027836;28;20025;-72
2021/04/23 07:52:08;;;;;;;27.73;18.75;;;;;;;15.70;100.00;101518.69;5028195;28;20132;-72
2021/04/23 07:54:57;;;;;;;29.63;17.95;;;;;;;15.70;100.00;101515.16;5026687;28;20029;-72
2021/04/23 07:57:43;;;;;;;30.75;18.13;;;;;;;16.26;100.00;101512.75;5028386;28;20182;-75
2021/04/23 08:00:29;;;;;;;35.10;18.25;;;;;;;15.86;100.00;101517.38;5027621;28;20461;-73
2021/04/23 08:03:15;;;;;;;26.45;17.48;;;;;;;16.00;100.00;101517.00;5012338;28;20480;-75
2021/04/23 08:06:00;;;;;;;21.73;16.90;;;;;;;15.89;100.00;101527.00;5026182;28;21096;-72
2021/04/23 08:08:46;;;;;;;19.55;16.58;;;;;;;15.90;100.00;101536.66;5027475;28;20026;-73
2021/04/23 08:11:32;;;;;;;26.13;17.00;;;;;;;16.17;100.00;101538.56;5026971;28;20033;-72
2021/04/23 08:14:18;;;;;;;21.58;16.92;;;;;;;16.24;100.00;101532.19;5025874;28;20382;-73
2021/04/23 08:17:04;;;;;;;23.15;17.20;;;;;;;16.45;100.00;101529.88;5028020;28;20076;-72
2021/04/23 08:19:51;;;;;;;21.55;17.05;;;;;;;16.61;100.00;101535.56;5013276;28;20056;-73
2021/04/23 08:22:38;;;;;;;25.27;18.88;;;;;;;16.73;100.00;101546.69;5026866;28;20429;-72
2021/04/23 08:25:24;;;;;;;21.83;16.55;;;;;;;16.41;100.00;101548.50;5026097;28;20053;-73
2021/04/23 08:28:10;;;;;;;19.05;16.10;;;;;;;16.01;100.00;101548.69;5012920;28;20041;-73
2021/04/23 08:30:56;;;;;;;18.23;14.90;;;;;;;15.99;100.00;101541.72;5011791;28;20133;-74
2021/04/23 08:33:42;;;;;;;20.33;14.55;;;;;;;16.09;100.00;101548.47;5026819;28;20025;-73
2021/04/23 08:36:27;;;;;;;17.85;13.50;;;;;;;16.07;100.00;101537.94;5012239;28;20035;-72
2021/04/23 08:39:14;;;;;;;19.38;12.90;;;;;;;16.17;100.00;101544.72;5027031;28;20030;-72
2021/04/23 08:41:59;;;;;;;14.43;12.48;;;;;;;16.56;100.00;101538.34;5026438;28;20045;-72
2021/04/23 08:44:45;;;;;;;15.95;12.63;;;;;;;16.72;100.00;101544.06;5026725;28;20116;-73
2021/04/23 08:47:31;;;;;;;12.60;11.25;;;;;;;16.20;100.00;101549.06;5026836;28;20108;-73
2021/04/23 08:50:20;;;;;;;12.13;10.85;;;;;;;16.39;100.00;101537.06;5023271;28;20420;-73
2021/04/23 08:53:08;;;;;;;12.10;10.02;;;;;;;15.94;100.00;101540.94;5012170;28;20088;-73
2021/04/23 08:55:56;;;;;;;12.80;10.40;;;;;;;16.41;100.00;101537.91;5025754;28;20466;-73
2021/04/23 08:58:42;;;;;;;12.23;10.10;;;;;;;16.42;100.00;101542.28;5012614;28;20124;-72
2021/04/23 09:01:28;;;;;;;12.43;9.60;;;;;;;16.08;100.00;101538.81;5026714;28;20021;-74
2021/04/23 09:04:14;;;;;;;14.00;10.48;;;;;;;16.52;100.00;101538.50;5024172;28;20088;-73
2021/04/23 09:07:05;;;;;;;12.68;10.35;;;;;;;16.13;100.00;101539.56;5011245;28;20048;-73
2021/04/23 09:09:51;;;;;;;11.82;9.98;;;;;;;16.48;100.00;101537.69;5017576;28;20029;-73
2021/04/23 09:12:41;;;;;;;14.00;9.88;;;;;;;16.93;100.00;101524.88;5031972;28;20446;-74
2021/04/23 09:15:27;;;;;;;12.02;10.68;;;;;;;16.45;100.00;101523.69;5034568;28;20339;-76
2021/04/23 09:18:14;;;;;;;12.10;9.25;;;;;;;16.43;100.00;101525.53;5033254;28;20096;-74
2021/04/23 09:21:03;;;;;;;13.13;9.80;;;;;;;16.80;100.00;101520.91;5020398;28;20327;-74
2021/04/23 09:23:52;;;;;;;10.70;9.60;;;;;;;16.64;100.00;101525.75;5019820;28;20469;-74
2021/04/23 09:26:39;;;;;;;11.05;9.02;;;;;;;16.62;100.00;101518.78;5033867;28;20033;-74
2021/04/23 09:29:32;;;;;;;9.35;8.35;;;;;;;16.62;100.00;101509.06;5018690;28;20055;-74
2021/04/23 09:32:28;;;;;;;12.15;8.88;;;;;;;16.43;100.00;101499.94;5033492;28;20404;-74
2021/04/23 09:35:15;;;;;;;11.75;9.63;;;;;;;16.82;100.00;101497.88;5033618;28;20021;-74
2021/04/23 09:38:01;;;;;;;9.75;8.50;;;;;;;17.17;100.00;101487.94;5034416;28;20025;-74
2021/04/23 09:40:47;;;;;;;11.52;9.18;;;;;;;16.75;100.00;101488.38;5033666;28;20450;-73
2021/04/23 09:43:37;;;;;;;11.15;8.80;;;;;;;16.57;100.00;101487.19;5033594;28;20064;-74
2021/04/23 09:46:36;;;;;;;13.90;11.00;;;;;;;16.82;100.00;101493.47;5032454;28;20025;-74
2021/04/23 09:49:22;;;;;;;13.35;9.82;;;;;;;16.51;100.00;101487.34;5033862;28;20368;-75
2021/04/23 09:52:12;;;;;;;10.90;9.20;;;;;;;17.26;100.00;101484.09;5033271;28;20041;-75
2021/04/23 09:55:03;;;;;;;14.80;10.13;;;;;;;17.53;100.00;101485.88;5019620;28;20021;-74
2021/04/23 09:57:55;;;;;;;10.88;8.60;;;;;;;17.47;100.00;101478.13;5018610;28;20080;-73
2021/04/23 10:00:41;;;;;;;11.75;8.93;;;;;;;17.08;100.00;101479.41;5034451;28;20029;-74
2021/04/23 10:03:32;;;;;;;14.68;8.70;;;;;;;17.88;100.00;101477.59;5025929;28;20033;-74
2021/04/23 10:06:22;;;;;;;12.27;9.73;;;;;;;17.69;100.00;101466.72;5040139;28;20453;-74
2021/04/23 10:09:08;;;;;;;14.32;10.15;;;;;;;17.13;100.00;101477.47;5027114;28;20021;-74
2021/04/23 10:11:54;;;;;;;14.85;11.18;;;;;;;16.55;100.00;101477.56;5039248;28;20095;-74
2021/04/23 10:14:40;;;;;;;15.60;11.45;;;;;;;17.45;100.00;101464.91;5039720;28;20053;-72
2021/04/23 10:17:26;;;;;;;20.73;13.65;;;;;;;17.35;100.00;101470.53;5040180;28;20033;-74
2021/04/23 10:20:16;;;;;;;21.55;14.98;;;;;;;17.85;100.00;101470.59;5040458;28;20442;-73
2021/04/23 10:23:07;;;;;;;19.08;12.07;;;;;;;18.18;100.00;101471.16;5039194;28;20033;-73
2021/04/23 10:25:54;;;;;;;14.93;11.30;;;;;;;18.34;100.00;101467.06;5038876;28;20026;-74
2021/04/23 10:28:40;;;;;;;15.35;11.57;;;;;;;18.15;100.00;101468.63;5039712;28;20094;-72
2021/04/23 10:31:25;;;;;;;15.90;10.43;;;;;;;18.35;100.00;101464.34;5039318;28;20026;-73
2021/04/23 10:34:11;;;;;;;15.02;11.07;;;;;;;18.00;100.00;101458.56;5039041;28;20457;-74
2021/04/23 10:36:58;;;;;;;15.05;10.32;;;;;;;18.35;100.00;101463.47;5025319;28;20450;-73
2021/04/23 10:39:47;;;;;;;15.10;10.68;;;;;;;17.90;100.00;101467.78;5039700;28;20029;-73
2021/04/23 10:42:56;;;;;;;14.77;10.38;;;;;;;18.09;100.00;101468.84;5040265;28;20037;-74
2021/04/23 10:46:04;;;;;;;11.90;8.50;;;;;;;17.76;100.00;101465.59;5040100;28;20032;-75
2021/04/23 10:49:03;;;;;;;9.23;7.30;;;;;;;17.99;100.00;101472.75;5026319;28;20033;-72
2021/04/23 10:52:03;;;;;;;9.93;7.60;;;;;;;18.68;100.00;101462.19;5039793;28;20116;-73
2021/04/23 10:55:06;;;;;;;7.72;6.30;;;;;;;18.00;100.00;101464.75;5039494;28;20041;-73
2021/04/23 10:57:54;;;;;;;9.20;5.72;;;;;;;17.98;100.00;101461.28;5025743;28;20166;-73
2021/04/23 11:00:48;;;;;;;6.13;5.53;;;;;;;18.47;100.00;101468.31;5039717;28;20116;-74
2021/04/23 11:03:37;;;;;;;6.75;5.10;;;;;;;18.47;100.00;101460.38;5039110;28;20056;-74
2021/04/23 11:06:46;;;;;;;5.57;5.03;;;;;;;18.87;100.00;101466.75;5026038;28;20489;-74
2021/04/23 11:09:32;;;;;;;6.07;4.32;;;;;;;19.26;100.00;101464.31;5014466;28;20436;-74
2021/04/23 11:12:18;;;;;;;5.78;4.50;;;;;;;19.38;100.00;101465.56;5038001;28;20065;-75
2021/04/23 11:15:11;;;;;;;5.13;4.63;;;;;;;18.82;100.00;101462.53;5022458;28;20186;-75
2021/04/23 11:18:26;;;;;;;5.13;4.63;;;;;;;19.44;100.00;101458.19;5036184;28;20466;-75
2021/04/23 11:21:27;;;;;;;6.50;5.05;;;;;;;18.71;100.00;101456.78;5035980;28;20102;-74
2021/04/23 11:24:22;;;;;;;7.82;5.20;;;;;;;18.71;100.00;101444.38;5022326;28;20239;-74
2021/04/23 11:27:10;;;;;;;5.95;4.93;;;;;;;19.42;100.00;101457.41;5036221;28;20160;-75
2021/04/23 11:29:57;;;;;;;7.78;5.60;;;;;;;19.25;100.00;101449.25;5035143;28;20025;-75
2021/04/23 11:32:54;;;;;;;6.35;5.75;;;;;;;18.76;100.00;101430.91;5022577;28;20585;-73
2021/04/23 11:35:40;;;;;;;7.72;5.55;;;;;;;19.97;100.00;101426.66;5035904;28;20025;-75
2021/04/23 11:38:52;;;;;;;7.85;5.93;;;;;;;19.68;100.00;101435.88;5022691;28;20037;-74
2021/04/23 11:41:58;;;;;;;7.20;6.07;;;;;;;19.53;100.00;101428.56;5036448;28;20021;-75
2021/04/23 11:45:04;;;;;;;9.55;6.65;;;;;;;18.92;100.00;101413.41;5022107;28;20025;-74
2021/04/23 11:47:56;;;;;;;8.68;5.82;;;;;;;19.42;100.00;101422.00;5022177;28;20059;-75
2021/04/23 11:50:45;;;;;;;6.45;5.57;;;;;;;20.15;100.00;101416.06;5035908;28;20034;-74
2021/04/23 11:53:31;;;;;;;10.07;5.78;;;;;;;20.37;100.00;101414.13;5034749;28;20063;-74
2021/04/23 11:56:17;;;;;;;6.63;5.70;;;;;;;20.35;100.00;101402.69;5035049;28;20034;-73
2021/04/23 11:59:06;;;;;;;6.53;5.50;;;;;;;20.32;100.00;101397.50;5035630;28;20443;-74
2021/04/23 12:01:52;;;;;;;5.70;4.95;;;;;;;20.03;100.00;101400.63;5035223;28;20025;-74
2021/04/23 12:04:42;;;;;;;6.63;4.78;;;;;;;20.27;100.00;101399.53;5036340;28;20410;-74
2021/04/23 12:07:43;;;;;;;6.03;4.32;;;;;;;20.51;100.00;101397.50;5034886;28;20029;-74
2021/04/23 12:10:31;;;;;;;9.25;5.70;;;;;;;20.72;100.00;101391.16;5034876;28;20041;-75
2021/04/23 12:13:24;;;;;;;40.97;36.70;;;;;;;20.52;98.04;101389.44;5035086;28;20088;-75
2021/04/23 12:16:13;;;;;;;4.80;4.05;;;;;;;19.63;97.07;101384.72;5035182;28;20025;-74
2021/04/23 12:19:00;;;;;;;8.10;3.88;;;;;;;19.72;100.00;101389.63;5021217;28;20061;-74
2021/04/23 12:21:54;;;;;;;7.43;5.78;;;;;;;20.60;100.00;101373.97;5035180;28;20036;-75
2021/04/23 12:24:40;;;;;;;5.18;3.97;;;;;;;21.08;96.68;101371.59;5034474;28;20033;-75
2021/04/23 12:27:26;;;;;;;6.38;4.30;;;;;;;20.86;94.44;101375.38;5035262;28;20022;-75
2021/04/23 12:30:12;;;;;;;5.30;3.50;;;;;;;20.96;93.51;101366.88;5035669;28;20022;-75
2021/04/23 12:32:58;;;;;;;6.55;5.13;;;;;;;21.21;92.04;101362.03;5034812;28;20043;-75
2021/04/23 12:35:47;;;;;;;6.40;4.00;;;;;;;20.69;93.20;101362.03;5034680;28;20036;-75
2021/04/23 12:38:41;;;;;;;4.78;3.17;;;;;;;20.35;92.30;101349.47;5035081;28;20057;-75